Time;durP1;ratioP1;P1;durP2;ratioP2;P2;SDS_P1;SDS_P2;PMS_P1;PMS_P2;Temp;Humidity;BMP_temperature;BMP_pressure;BME280_temperature;BME280_humidity;BME280_pressure;Samples;Min_cycle;Max_cycle;Signal;HPM_P1;HPM_P2
2022/08/08 00:01:30;;;;;;;3.42;2.28;;;13.60;55.60;;;;;;5070629;28;20210;-37
2022/08/08 00:04:13;;;;;;;2.88;1.98;;;13.70;55.80;;;;;;5072811;28;20226;-37
2022/08/08 00:06:52;;;;;;;2.80;2.03;;;13.70;56.00;;;;;;5068915;28;20848;-40
2022/08/08 00:09:42;;;;;;;3.85;2.22;;;13.70;56.20;;;;;;5074590;28;20206;-37
2022/08/08 00:12:16;;;;;;;3.13;2.00;;;13.80;56.40;;;;;;5060401;28;20188;-42
2022/08/08 00:14:54;;;;;;;3.47;2.00;;;13.80;56.30;;;;;;5061405;28;20201;-45
2022/08/08 00:17:40;;;;;;;4.55;2.38;;;13.80;56.30;;;;;;5078203;28;20203;-37
2022/08/08 00:20:12;;;;;;;4.43;2.20;;;13.80;56.30;;;;;;5067634;28;20283;-38
2022/08/08 00:22:48;;;;;;;3.58;2.50;;;13.80;56.20;;;;;;5072884;28;20232;-37
2022/08/08 00:25:24;;;;;;;3.28;2.33;;;13.80;56.20;;;;;;5069359;28;20213;-37
2022/08/08 00:27:58;;;;;;;4.65;2.45;;;13.90;56.30;;;;;;5074853;28;20195;-37
2022/08/08 00:30:34;;;;;;;3.40;2.15;;;13.90;56.50;;;;;;5073068;28;20190;-37
2022/08/08 00:33:09;;;;;;;3.88;1.90;;;13.90;56.60;;;;;;5056949;28;20207;-37
2022/08/08 00:35:46;;;;;;;4.00;2.10;;;13.90;56.50;;;;;;5063621;28;20209;-38
2022/08/08 00:38:31;;;;;;;4.38;2.05;;;13.90;56.40;;;;;;5054854;28;20242;-37
2022/08/08 00:41:38;;;;;;;5.65;2.17;;;13.90;56.40;;;;;;5066350;28;20191;-42
2022/08/08 00:44:40;;;;;;;7.30;2.30;;;14.00;56.30;;;;;;5054378;28;20214;-37
2022/08/08 00:47:51;;;;;;;4.25;2.00;;;14.00;56.20;;;;;;5053158;28;20195;-42
2022/08/08 00:51:13;;;;;;;3.70;2.22;;;14.00;56.10;;;;;;5060018;28;20198;-43
2022/08/08 00:54:04;;;;;;;2.60;1.80;;;14.00;56.00;;;;;;5052029;28;20199;-42
2022/08/08 00:57:05;;;;;;;2.97;1.80;;;14.00;56.60;;;;;;5069450;28;20214;-37
2022/08/08 01:00:04;;;;;;;3.38;2.00;;;13.90;56.20;;;;;;5070209;28;20195;-37
2022/08/08 01:03:30;;;;;;;4.18;2.13;;;14.00;55.90;;;;;;5072866;28;20227;-37
2022/08/08 01:06:29;;;;;;;2.00;1.52;;;13.90;55.90;;;;;;5084073;28;20214;-39
2022/08/08 01:09:37;;;;;;;4.43;2.20;;;13.90;55.80;;;;;;5093181;28;20541;-37
2022/08/08 01:12:37;;;;;;;3.00;1.65;;;13.90;55.80;;;;;;5035258;28;20196;-37
2022/08/08 01:15:34;;;;;;;3.65;2.05;;;13.90;55.80;;;;;;5090943;28;20217;-37
2022/08/08 01:18:38;;;;;;;4.43;2.03;;;13.90;55.80;;;;;;5071641;28;20562;-39
2022/08/08 01:21:28;;;;;;;5.22;1.95;;;13.90;55.80;;;;;;5055756;28;20195;-37
2022/08/08 01:24:38;;;;;;;3.80;1.73;;;13.90;55.60;;;;;;5052595;28;20223;-37
2022/08/08 01:27:45;;;;;;;4.53;1.83;;;13.90;55.70;;;;;;5063895;28;20619;-43
2022/08/08 01:31:02;;;;;;;3.08;1.60;;;13.90;55.60;;;;;;5052603;28;20226;-43
2022/08/08 01:34:09;;;;;;;3.08;1.63;;;13.90;55.50;;;;;;5052823;28;20199;-46
2022/08/08 01:37:08;;;;;;;2.72;1.60;;;13.90;55.50;;;;;;5051838;28;20242;-44
2022/08/08 01:39:55;;;;;;;3.92;1.88;;;13.90;55.50;;;;;;5053782;28;20291;-43
2022/08/08 01:42:35;;;;;;;3.83;1.60;;;13.90;55.40;;;;;;5067687;28;20880;-44
2022/08/08 01:45:20;;;;;;;4.03;2.10;;;13.90;55.40;;;;;;5073099;28;20210;-43
2022/08/08 01:48:11;;;;;;;3.50;1.98;;;13.90;55.40;;;;;;5072704;28;20194;-43
2022/08/08 01:50:59;;;;;;;2.80;1.60;;;13.90;55.30;;;;;;5071655;28;20198;-43
2022/08/08 01:53:47;;;;;;;3.58;1.83;;;14.00;55.30;;;;;;5071344;28;20199;-40
2022/08/08 01:56:27;;;;;;;3.58;1.58;;;14.00;55.30;;;;;;5071998;28;20231;-38
2022/08/08 01:59:12;;;;;;;3.45;1.80;;;13.90;55.30;;;;;;5071478;28;20199;-37
2022/08/08 02:02:03;;;;;;;2.47;1.52;;;13.90;55.20;;;;;;5062740;28;20219;-38
2022/08/08 02:04:41;;;;;;;2.15;1.60;;;14.00;55.20;;;;;;5072349;28;20562;-38
2022/08/08 02:07:21;;;;;;;3.28;1.50;;;14.00;55.20;;;;;;5071880;28;20194;-38
2022/08/08 02:10:15;;;;;;;5.03;2.00;;;14.00;55.20;;;;;;5071510;28;20205;-37
2022/08/08 02:12:54;;;;;;;3.67;1.75;;;14.00;55.20;;;;;;5071702;28;20206;-37
2022/08/08 02:15:35;;;;;;;3.80;1.73;;;14.00;55.10;;;;;;5071089;28;20219;-38
2022/08/08 02:18:13;;;;;;;3.28;1.75;;;14.00;55.10;;;;;;5071220;28;20190;-37
2022/08/08 02:22:30;;;;;;;2.42;1.50;;;14.00;55.10;;;;;;5070998;28;20210;-40
2022/08/08 02:23:46;;;;;;;2.05;1.50;;;14.00;55.10;;;;;;5071174;28;20286;-38
2022/08/08 02:26:26;;;;;;;5.13;1.58;;;14.00;55.00;;;;;;5071182;28;20610;-40
2022/08/08 02:29:11;;;;;;;3.90;1.50;;;14.00;55.00;;;;;;5071617;28;20199;-40
2022/08/08 02:31:58;;;;;;;4.25;1.70;;;14.00;55.10;;;;;;5071872;28;20205;-40
2022/08/08 02:34:52;;;;;;;2.90;1.67;;;14.00;55.20;;;;;;5070996;28;20333;-37
2022/08/08 02:37:34;;;;;;;4.00;1.40;;;14.00;55.20;;;;;;5041321;28;20564;-37
2022/08/08 02:40:14;;;;;;;3.35;1.60;;;14.10;55.30;;;;;;5070831;28;20198;-37
2022/08/08 02:43:15;;;;;;;3.90;1.90;;;14.00;55.20;;;;;;5057386;28;20238;-37
2022/08/08 02:46:13;;;;;;;3.58;1.63;;;14.10;55.20;;;;;;5061968;28;20272;-38
2022/08/08 02:49:20;;;;;;;2.63;1.35;;;14.00;55.10;;;;;;5070032;28;20202;-43
2022/08/08 02:52:13;;;;;;;2.97;1.45;;;14.10;55.10;;;;;;5009176;28;20196;-37
2022/08/08 02:55:24;;;;;;;2.85;1.70;;;14.10;55.00;;;;;;5070913;28;20202;-43
2022/08/08 02:58:30;;;;;;;3.45;1.60;;;14.00;54.90;;;;;;5014750;28;20734;-38
2022/08/08 03:01:38;;;;;;;3.20;1.90;;;14.10;55.00;;;;;;5070589;28;20750;-40
2022/08/08 03:04:49;;;;;;;4.40;2.15;;;14.10;54.90;;;;;;5051671;28;20191;-38
2022/08/08 03:07:45;;;;;;;2.58;1.50;;;14.10;54.90;;;;;;5068511;28;20201;-37
2022/08/08 03:10:56;;;;;;;4.28;1.95;;;14.10;54.80;;;;;;5070437;28;20199;-38
2022/08/08 03:13:49;;;;;;;3.47;1.77;;;14.00;54.90;;;;;;5070059;28;20639;-40
2022/08/08 03:16:40;;;;;;;3.30;2.30;;;14.00;54.80;;;;;;5067867;28;20222;-38
2022/08/08 03:19:51;;;;;;;3.35;2.00;;;14.00;54.80;;;;;;5051208;28;20202;-37
2022/08/08 03:22:19;;;;;;;2.95;1.55;;;14.00;54.80;;;;;;5051040;28;20251;-38
2022/08/08 03:24:54;;;;;;;3.17;1.60;;;14.00;54.80;;;;;;5050721;28;20568;-38
2022/08/08 03:27:31;;;;;;;2.92;1.95;;;14.00;54.80;;;;;;5064748;28;20194;-37
2022/08/08 03:30:08;;;;;;;4.70;2.25;;;14.00;54.80;;;;;;5058550;28;20207;-46
2022/08/08 03:35:26;;;;;;;3.20;1.88;;;14.00;54.80;;;;;;5065654;28;20222;-38
2022/08/08 03:37:57;;;;;;;3.30;2.00;;;14.00;54.70;;;;;;5071759;28;20203;-37
2022/08/08 03:40:30;;;;;;;3.55;1.80;;;14.00;54.80;;;;;;5074928;28;20194;-37
2022/08/08 03:43:01;;;;;;;3.25;1.50;;;14.00;54.70;;;;;;5074798;28;20229;-38
2022/08/08 03:45:32;;;;;;;3.80;1.92;;;14.00;54.80;;;;;;5074456;28;20214;-37
2022/08/08 03:48:04;;;;;;;3.65;1.70;;;14.00;54.80;;;;;;5074567;28;20190;-37
2022/08/08 03:50:36;;;;;;;3.72;1.90;;;14.00;54.80;;;;;;5073629;28;20289;-37
2022/08/08 03:53:11;;;;;;;3.05;1.98;;;14.00;54.70;;;;;;5054316;28;20206;-44
2022/08/08 03:55:45;;;;;;;2.22;1.80;;;14.00;54.80;;;;;;5054910;28;20246;-37
2022/08/08 03:58:21;;;;;;;2.33;1.63;;;14.00;54.80;;;;;;5074635;28;20194;-52
2022/08/08 04:00:55;;;;;;;3.20;2.03;;;14.00;54.70;;;;;;5062898;28;20201;-45
2022/08/08 04:03:34;;;;;;;2.92;1.88;;;14.00;54.70;;;;;;5073855;28;20214;-39
2022/08/08 04:06:08;;;;;;;2.90;1.80;;;14.00;54.60;;;;;;5074414;28;20250;-38
2022/08/08 04:08:40;;;;;;;3.10;2.17;;;14.00;54.60;;;;;;5062382;28;20285;-37
2022/08/08 04:11:12;;;;;;;4.63;2.00;;;14.00;54.60;;;;;;5054863;28;20544;-37
2022/08/08 04:13:43;;;;;;;2.63;1.52;;;14.00;54.60;;;;;;5053881;28;20282;-39
2022/08/08 04:16:14;;;;;;;3.35;1.85;;;14.00;54.60;;;;;;5060645;28;20214;-42
2022/08/08 04:18:45;;;;;;;3.55;1.90;;;14.00;54.60;;;;;;5074042;28;20194;-38
2022/08/08 04:21:16;;;;;;;2.83;1.90;;;14.00;54.60;;;;;;5073430;28;20198;-37
2022/08/08 04:23:46;;;;;;;2.22;1.70;;;13.90;54.60;;;;;;5073502;28;20476;-37
2022/08/08 04:26:19;;;;;;;2.17;1.70;;;13.90;54.60;;;;;;5073406;28;20429;-38
2022/08/08 04:28:50;;;;;;;2.60;1.80;;;14.00;54.60;;;;;;5074301;28;20638;-38
2022/08/08 04:31:20;;;;;;;3.00;1.80;;;13.90;54.60;;;;;;5073367;28;20195;-39
2022/08/08 04:33:51;;;;;;;3.53;1.58;;;13.90;54.50;;;;;;5074134;28;20198;-39
2022/08/08 04:36:22;;;;;;;3.15;1.77;;;13.90;54.50;;;;;;5073836;28;20206;-46
2022/08/08 04:38:53;;;;;;;3.75;1.65;;;13.90;54.50;;;;;;5073988;28;20197;-37
2022/08/08 04:41:26;;;;;;;2.72;1.60;;;13.90;54.50;;;;;;5073909;28;20199;-37
2022/08/08 04:43:57;;;;;;;2.58;1.88;;;13.90;54.50;;;;;;5073697;28;20234;-42
2022/08/08 04:46:28;;;;;;;5.60;2.13;;;13.90;54.60;;;;;;5071815;28;21011;-38
2022/08/08 04:48:59;;;;;;;2.67;1.95;;;13.90;54.50;;;;;;5064522;28;20203;-37
2022/08/08 04:51:29;;;;;;;2.08;1.70;;;13.90;54.50;;;;;;5073207;28;20195;-42
2022/08/08 04:54:00;;;;;;;2.30;1.75;;;13.90;54.50;;;;;;5073745;28;20582;-53
2022/08/08 04:56:33;;;;;;;2.42;1.63;;;13.90;54.60;;;;;;5072808;28;20227;-39
2022/08/08 04:59:03;;;;;;;2.67;1.85;;;13.90;54.60;;;;;;5073594;28;20205;-37
2022/08/08 05:01:34;;;;;;;2.35;1.75;;;13.90;54.60;;;;;;5074059;28;20559;-37
2022/08/08 05:04:05;;;;;;;3.13;1.80;;;13.90;54.60;;;;;;5072995;28;20229;-37
2022/08/08 05:06:35;;;;;;;3.05;1.90;;;13.90;54.60;;;;;;5057293;28;20215;-38
2022/08/08 05:09:06;;;;;;;2.70;2.13;;;13.90;54.60;;;;;;5051654;28;20678;-37
2022/08/08 05:11:39;;;;;;;3.00;2.03;;;13.90;54.50;;;;;;5053060;28;20211;-37
2022/08/08 05:14:10;;;;;;;4.25;2.10;;;13.90;54.60;;;;;;5052222;28;20564;-37
2022/08/08 05:16:41;;;;;;;2.70;2.33;;;13.90;54.50;;;;;;5053129;28;20219;-40
2022/08/08 05:19:13;;;;;;;2.38;1.90;;;13.90;54.50;;;;;;5052948;28;20206;-41
2022/08/08 05:21:44;;;;;;;3.13;2.10;;;13.90;54.50;;;;;;5056723;28;20187;-37
2022/08/08 05:24:15;;;;;;;2.65;2.00;;;13.80;54.50;;;;;;5051906;28;20850;-38
2022/08/08 05:26:48;;;;;;;2.60;2.08;;;13.80;54.50;;;;;;5061123;28;20258;-37
2022/08/08 05:29:18;;;;;;;3.55;2.30;;;13.80;54.50;;;;;;5073035;28;20205;-39
2022/08/08 05:31:49;;;;;;;2.60;1.88;;;13.80;54.50;;;;;;5072411;28;20206;-39
2022/08/08 05:34:26;;;;;;;4.07;2.30;;;13.80;54.50;;;;;;5073140;28;20191;-38
2022/08/08 05:36:58;;;;;;;3.97;2.15;;;13.80;54.50;;;;;;5071507;28;20214;-38
2022/08/08 05:39:29;;;;;;;2.97;2.30;;;13.80;54.50;;;;;;5072390;28;20202;-37
2022/08/08 05:42:03;;;;;;;4.10;2.38;;;13.80;54.40;;;;;;5072721;28;20202;-41
2022/08/08 05:44:42;;;;;;;4.25;2.10;;;13.80;54.40;;;;;;5072594;28;20222;-37
2022/08/08 05:47:14;;;;;;;2.58;1.92;;;13.80;54.40;;;;;;5071820;28;20668;-59
2022/08/08 05:49:47;;;;;;;3.40;2.22;;;13.80;54.40;;;;;;5073098;28;20206;-52
2022/08/08 05:52:18;;;;;;;2.42;1.83;;;13.80;54.40;;;;;;5071878;28;20199;-39
2022/08/08 05:54:49;;;;;;;2.97;1.92;;;13.80;54.40;;;;;;5072150;28;20206;-38
2022/08/08 05:57:24;;;;;;;4.05;2.00;;;13.80;54.40;;;;;;5072023;28;20199;-39
2022/08/08 05:59:58;;;;;;;2.60;1.90;;;13.80;54.40;;;;;;5071943;28;20716;-37
2022/08/08 06:05:16;;;;;;;2.67;2.10;;;13.80;54.40;;;;;;5072155;28;20256;-41
2022/08/08 06:07:49;;;;;;;2.47;1.85;;;13.80;54.40;;;;;;5072191;28;20731;-37
2022/08/08 06:10:21;;;;;;;2.35;2.03;;;13.80;54.40;;;;;;5071861;28;20198;-38
2022/08/08 06:12:54;;;;;;;2.92;2.42;;;13.70;54.40;;;;;;5071214;28;20202;-37
2022/08/08 06:15:24;;;;;;;2.85;2.17;;;13.70;54.40;;;;;;5071168;28;20215;-38
2022/08/08 06:17:57;;;;;;;3.08;2.10;;;13.80;54.40;;;;;;5072411;28;20195;-37
2022/08/08 06:20:28;;;;;;;3.40;2.42;;;13.70;54.40;;;;;;5071196;28;20237;-39
2022/08/08 06:22:59;;;;;;;3.05;2.42;;;13.70;54.40;;;;;;5071295;28;20942;-40
2022/08/08 06:25:32;;;;;;;3.45;2.50;;;13.70;54.50;;;;;;5071306;28;20223;-37
2022/08/08 06:28:13;;;;;;;4.35;2.90;;;13.70;54.50;;;;;;5071553;28;20206;-39
2022/08/08 06:30:46;;;;;;;4.95;2.45;;;13.80;54.50;;;;;;5071945;28;20198;-37
2022/08/08 06:33:18;;;;;;;3.92;2.33;;;13.80;54.50;;;;;;5075740;28;20252;-37
2022/08/08 06:35:50;;;;;;;3.20;2.40;;;13.70;54.50;;;;;;5092332;28;20226;-37
2022/08/08 06:38:24;;;;;;;3.60;2.78;;;13.70;54.50;;;;;;5092400;28;20201;-36
2022/08/08 06:41:00;;;;;;;3.75;2.72;;;13.70;54.70;;;;;;5092407;28;20200;-40
2022/08/08 06:43:38;;;;;;;3.85;3.00;;;13.70;54.50;;;;;;5092107;28;20217;-37
2022/08/08 06:46:09;;;;;;;4.38;2.53;;;13.70;54.50;;;;;;5091784;28;20213;-37
2022/08/08 06:48:39;;;;;;;3.15;2.47;;;13.70;55.10;;;;;;5089148;28;20216;-36
2022/08/08 06:51:11;;;;;;;4.32;2.45;;;13.70;54.60;;;;;;5071662;28;20195;-37
2022/08/08 06:53:42;;;;;;;4.82;2.53;;;13.70;54.60;;;;;;5071392;28;20206;-37
2022/08/08 06:56:13;;;;;;;3.40;2.40;;;13.70;54.60;;;;;;5071671;28;20215;-37
2022/08/08 06:58:46;;;;;;;4.35;2.67;;;13.70;54.60;;;;;;5071801;28;20563;-36
2022/08/08 07:01:18;;;;;;;3.92;2.40;;;13.70;54.60;;;;;;5071540;28;20194;-39
2022/08/08 07:03:54;;;;;;;3.97;2.67;;;13.70;54.60;;;;;;5071158;28;20217;-41
2022/08/08 07:06:26;;;;;;;3.28;2.90;;;13.70;54.60;;;;;;5071365;28;20693;-38
2022/08/08 07:09:17;;;;;;;3.58;2.65;;;13.70;54.60;;;;;;5071592;28;20201;-37
2022/08/08 07:11:52;;;;;;;4.18;3.20;;;13.70;54.60;;;;;;5071233;28;20195;-39
2022/08/08 07:14:32;;;;;;;4.30;2.80;;;13.70;54.60;;;;;;5070684;28;20198;-37
2022/08/08 07:17:06;;;;;;;3.25;2.50;;;13.60;54.50;;;;;;5071568;28;20253;-39
2022/08/08 07:19:43;;;;;;;4.22;2.92;;;13.60;54.50;;;;;;5071253;28;20206;-37
2022/08/08 07:22:18;;;;;;;4.25;2.65;;;13.60;54.60;;;;;;5071353;28;20225;-37
2022/08/08 07:24:55;;;;;;;3.60;2.55;;;13.60;54.60;;;;;;5071281;28;20229;-37
2022/08/08 07:27:27;;;;;;;3.15;2.47;;;13.60;54.50;;;;;;5070973;28;20190;-40
2022/08/08 07:30:01;;;;;;;3.20;2.63;;;13.60;54.50;;;;;;5071613;28;20195;-37
2022/08/08 07:32:33;;;;;;;4.45;2.85;;;13.60;54.50;;;;;;5071255;28;20190;-37
2022/08/08 07:35:05;;;;;;;3.35;2.67;;;13.60;54.50;;;;;;5070824;28;20215;-37
2022/08/08 07:37:38;;;;;;;3.47;2.63;;;13.60;54.50;;;;;;5051316;28;20198;-37
2022/08/08 07:40:11;;;;;;;4.47;2.95;;;13.60;54.60;;;;;;5051266;28;20195;-37
2022/08/08 07:42:43;;;;;;;3.63;2.75;;;13.60;54.60;;;;;;5051483;28;20195;-37
2022/08/08 07:45:16;;;;;;;5.05;2.67;;;13.60;54.50;;;;;;5050818;28;20233;-37
2022/08/08 07:47:46;;;;;;;4.32;3.05;;;13.60;54.60;;;;;;5051068;28;20566;-37
2022/08/08 07:50:17;;;;;;;4.10;2.70;;;13.60;54.50;;;;;;5063813;28;20213;-37
2022/08/08 07:52:52;;;;;;;3.00;2.70;;;13.60;54.60;;;;;;5070802;28;20194;-37
2022/08/08 07:55:26;;;;;;;3.22;2.67;;;13.50;54.50;;;;;;5071051;28;20233;-37
2022/08/08 07:58:07;;;;;;;3.80;2.90;;;13.60;54.60;;;;;;5070760;28;20633;-38
2022/08/08 08:00:44;;;;;;;4.20;2.83;;;13.60;54.60;;;;;;5070738;28;20205;-37
2022/08/08 08:03:21;;;;;;;3.85;2.70;;;13.60;54.60;;;;;;5070557;28;20213;-38
2022/08/08 08:05:53;;;;;;;2.97;2.50;;;13.60;54.60;;;;;;5070558;28;20217;-37
2022/08/08 08:08:34;;;;;;;3.50;2.78;;;13.60;54.60;;;;;;5070883;28;20199;-37
2022/08/08 08:11:04;;;;;;;4.43;2.90;;;13.60;54.60;;;;;;5071082;28;20201;-42
2022/08/08 08:13:41;;;;;;;3.88;2.78;;;13.60;55.20;;;;;;5070857;28;20202;-37
2022/08/08 08:16:16;;;;;;;3.45;2.30;;;13.50;56.00;;;;;;5070774;28;20214;-36
2022/08/08 08:18:49;;;;;;;4.65;3.10;;;13.60;57.60;;;;;;5067159;28;20202;-37
2022/08/08 08:21:20;;;;;;;3.13;2.50;;;13.60;57.80;;;;;;5053588;28;20643;-37
2022/08/08 08:23:51;;;;;;;3.92;2.60;;;13.70;57.90;;;;;;5051323;28;20314;-36
2022/08/08 08:26:23;;;;;;;3.55;2.60;;;13.70;57.60;;;;;;5059414;28;20225;-38
2022/08/08 08:28:54;;;;;;;3.42;2.47;;;13.70;57.10;;;;;;5074090;28;20210;-37
2022/08/08 08:31:26;;;;;;;3.75;2.67;;;13.70;56.90;;;;;;5073844;28;20206;-37
2022/08/08 08:33:58;;;;;;;3.97;2.70;;;13.70;56.70;;;;;;5073593;28;20202;-37
2022/08/08 08:36:28;;;;;;;3.30;2.70;;;13.70;56.60;;;;;;5053213;28;20712;-37
2022/08/08 08:39:02;;;;;;;4.22;2.78;;;13.70;56.50;;;;;;5059339;28;20194;-37
2022/08/08 08:41:40;;;;;;;4.90;2.53;;;13.70;56.40;;;;;;5073936;28;20215;-40
2022/08/08 08:44:11;;;;;;;3.95;2.70;;;13.70;56.30;;;;;;5074237;28;20229;-38
2022/08/08 08:46:44;;;;;;;2.95;2.60;;;13.70;56.30;;;;;;5074177;28;20699;-43
2022/08/08 08:49:15;;;;;;;3.72;2.78;;;13.70;56.20;;;;;;5073563;28;20199;-42
2022/08/08 08:51:46;;;;;;;4.15;2.78;;;13.70;56.30;;;;;;5069905;28;20198;-39
2022/08/08 08:54:20;;;;;;;2.83;2.30;;;13.60;56.40;;;;;;5073325;28;20206;-39
2022/08/08 08:56:51;;;;;;;3.72;2.80;;;13.70;56.40;;;;;;5072976;28;20223;-37
2022/08/08 08:59:22;;;;;;;3.88;2.75;;;13.70;56.40;;;;;;5073450;28;20195;-37
2022/08/08 09:01:57;;;;;;;2.85;2.33;;;13.60;56.30;;;;;;5073286;28;20213;-37
2022/08/08 09:04:29;;;;;;;3.30;2.80;;;13.70;56.30;;;;;;5073469;28;20728;-38
2022/08/08 09:07:03;;;;;;;3.63;2.85;;;13.70;56.90;;;;;;5073500;28;20222;-37
2022/08/08 09:09:37;;;;;;;4.32;2.95;;;13.60;56.20;;;;;;5073163;28;20653;-37
2022/08/08 09:12:11;;;;;;;4.00;2.92;;;13.60;56.20;;;;;;5073595;28;20275;-43
2022/08/08 09:14:46;;;;;;;4.70;2.92;;;13.60;56.10;;;;;;5072842;28;20621;-38
2022/08/08 09:17:20;;;;;;;3.78;2.88;;;13.60;56.10;;;;;;5073243;28;20194;-37
2022/08/08 09:19:50;;;;;;;5.00;2.88;;;13.60;56.00;;;;;;5072578;28;20198;-55
2022/08/08 09:22:23;;;;;;;3.20;2.70;;;13.60;55.90;;;;;;5072601;28;20210;-37
2022/08/08 09:24:54;;;;;;;6.72;3.60;;;13.60;56.00;;;;;;5072944;28;20280;-39
2022/08/08 09:27:25;;;;;;;3.75;3.20;;;13.60;56.00;;;;;;5029519;28;20195;-37
2022/08/08 09:29:59;;;;;;;4.00;3.45;;;13.60;56.10;;;;;;5071010;28;20195;-37
2022/08/08 09:32:41;;;;;;;3.83;2.95;;;13.60;56.20;;;;;;5070703;28;20958;-36
2022/08/08 09:35:13;;;;;;;6.88;3.38;;;13.60;56.60;;;;;;5068759;28;20935;-38
2022/08/08 09:37:47;;;;;;;5.28;3.30;;;13.60;56.00;;;;;;5071918;28;20588;-37
2022/08/08 09:40:19;;;;;;;3.83;3.03;;;13.60;55.90;;;;;;5070091;28;20190;-35
2022/08/08 09:42:51;;;;;;;4.45;3.15;;;13.50;55.90;;;;;;5072477;28;20644;-36
2022/08/08 09:45:23;;;;;;;4.25;3.38;;;13.60;55.90;;;;;;5070507;28;20230;-47
2022/08/08 09:47:56;;;;;;;3.40;2.83;;;13.50;55.90;;;;;;5071652;28;20194;-45
2022/08/08 09:50:29;;;;;;;4.55;3.22;;;13.60;55.90;;;;;;5072188;28;20205;-41
2022/08/08 09:53:03;;;;;;;3.30;2.70;;;13.60;55.90;;;;;;5070902;28;20201;-39
2022/08/08 09:55:34;;;;;;;4.47;3.10;;;13.60;55.90;;;;;;5071374;28;20252;-37
2022/08/08 09:58:09;;;;;;;4.00;2.88;;;13.60;55.90;;;;;;5070429;28;20199;-38
2022/08/08 10:00:41;;;;;;;4.35;3.00;;;13.50;55.80;;;;;;5071124;28;20202;-42
2022/08/08 10:03:17;;;;;;;4.13;3.05;;;13.50;55.80;;;;;;5071493;28;20214;-46
2022/08/08 10:05:48;;;;;;;4.15;3.03;;;13.50;55.80;;;;;;5071410;28;20313;-41
2022/08/08 10:08:21;;;;;;;3.75;2.67;;;13.50;55.70;;;;;;5070450;28;20203;-37
2022/08/08 10:10:59;;;;;;;3.70;2.83;;;13.50;55.70;;;;;;5071330;28;20195;-41
2022/08/08 10:13:31;;;;;;;3.55;2.95;;;13.50;55.80;;;;;;5071404;28;20194;-40
2022/08/08 10:16:04;;;;;;;4.72;3.10;;;13.50;55.70;;;;;;5070485;28;20695;-37
2022/08/08 10:18:40;;;;;;;3.20;2.88;;;13.50;55.70;;;;;;5071544;28;20216;-51
2022/08/08 10:21:12;;;;;;;4.07;3.03;;;13.50;55.70;;;;;;5071506;28;20195;-47
2022/08/08 10:23:45;;;;;;;3.38;2.78;;;13.50;55.70;;;;;;5070182;28;20201;-38
2022/08/08 10:26:21;;;;;;;3.60;3.30;;;13.50;55.70;;;;;;5070177;28;20222;-38
2022/08/08 10:28:57;;;;;;;4.70;3.15;;;13.50;55.70;;;;;;5071066;28;20202;-52
2022/08/08 10:34:21;;;;;;;4.63;2.97;;;13.50;55.60;;;;;;5071244;28;20221;-41
2022/08/08 10:36:53;;;;;;;4.15;3.20;;;13.50;55.60;;;;;;5070360;28;20222;-38
2022/08/08 10:39:25;;;;;;;4.90;3.13;;;13.50;55.60;;;;;;5070535;28;20199;-44
2022/08/08 10:42:00;;;;;;;4.55;3.15;;;13.50;55.60;;;;;;5071304;28;20626;-44
2022/08/08 10:44:38;;;;;;;3.97;3.10;;;13.50;55.70;;;;;;5070400;28;20222;-38
2022/08/08 10:47:17;;;;;;;4.38;3.00;;;13.40;55.60;;;;;;5064239;28;20193;-37
2022/08/08 10:49:55;;;;;;;4.07;2.78;;;13.40;55.60;;;;;;5051036;28;20203;-37
2022/08/08 10:52:28;;;;;;;4.10;2.85;;;13.40;55.60;;;;;;5050350;28;20712;-43
2022/08/08 10:55:00;;;;;;;4.60;3.00;;;13.40;55.60;;;;;;5050749;28;20722;-42
2022/08/08 10:57:31;;;;;;;5.25;3.22;;;13.40;55.60;;;;;;5064510;28;20214;-49
2022/08/08 11:00:02;;;;;;;3.90;2.80;;;13.40;55.60;;;;;;5069665;28;20724;-41
2022/08/08 11:02:35;;;;;;;3.45;2.65;;;13.40;55.80;;;;;;5070612;28;20199;-38
2022/08/08 11:05:10;;;;;;;4.43;2.88;;;13.40;56.20;;;;;;5070182;28;20233;-44
2022/08/08 11:07:43;;;;;;;4.75;2.83;;;13.40;55.60;;;;;;5070331;28;20288;-42
2022/08/08 11:10:15;;;;;;;3.60;2.67;;;13.40;55.60;;;;;;5069586;28;20195;-36
2022/08/08 11:12:49;;;;;;;4.13;2.90;;;13.40;55.60;;;;;;5070932;28;20199;-40
2022/08/08 11:15:22;;;;;;;3.33;2.80;;;13.40;55.60;;;;;;5070195;28;20214;-44
2022/08/08 11:17:53;;;;;;;3.55;2.85;;;13.40;55.60;;;;;;5069065;28;20205;-41
2022/08/08 11:20:27;;;;;;;4.15;2.78;;;13.40;55.60;;;;;;5069640;28;20198;-38
2022/08/08 11:22:59;;;;;;;4.05;2.58;;;13.30;55.60;;;;;;5069643;28;20202;-50
2022/08/08 11:25:31;;;;;;;3.97;3.00;;;13.30;55.60;;;;;;5069530;28;20236;-40
2022/08/08 11:28:03;;;;;;;3.63;2.38;;;13.30;55.60;;;;;;5070006;28;20203;-42
2022/08/08 11:30:35;;;;;;;3.47;2.50;;;13.30;55.60;;;;;;5070799;28;20194;-38
2022/08/08 11:33:06;;;;;;;3.97;2.50;;;13.30;55.50;;;;;;5070328;28;20206;-40
2022/08/08 11:35:39;;;;;;;5.13;2.50;;;13.30;55.50;;;;;;5070019;28;20214;-38
2022/08/08 11:38:10;;;;;;;3.75;2.78;;;13.30;55.60;;;;;;5067233;28;20568;-42
2022/08/08 11:40:41;;;;;;;3.25;2.35;;;13.30;55.50;;;;;;5069675;28;20658;-41
2022/08/08 11:43:13;;;;;;;4.35;2.70;;;13.30;55.50;;;;;;5069372;28;20194;-45
2022/08/08 11:45:44;;;;;;;3.40;2.67;;;13.30;56.10;;;;;;5069701;28;20239;-40
2022/08/08 11:48:16;;;;;;;3.47;2.47;;;13.30;55.60;;;;;;5070094;28;20199;-37
2022/08/08 11:50:49;;;;;;;3.75;2.83;;;13.30;55.60;;;;;;5069729;28;20195;-37
2022/08/08 11:53:21;;;;;;;3.42;2.38;;;13.30;55.60;;;;;;5070744;28;20222;-59
2022/08/08 11:55:52;;;;;;;4.03;2.70;;;13.30;55.60;;;;;;5069551;28;20284;-37
2022/08/08 11:58:33;;;;;;;3.65;2.78;;;13.20;55.60;;;;;;5068650;28;20225;-38
2022/08/08 12:01:07;;;;;;;3.78;2.55;;;13.20;55.60;;;;;;5072619;28;20194;-41
2022/08/08 12:03:37;;;;;;;4.05;2.60;;;13.20;55.50;;;;;;5072894;28;20205;-37
2022/08/08 12:06:18;;;;;;;5.10;2.90;;;13.20;55.60;;;;;;5072059;28;20226;-37
2022/08/08 12:08:48;;;;;;;4.35;2.65;;;13.20;55.50;;;;;;5072132;28;20277;-37
2022/08/08 12:11:20;;;;;;;3.10;2.45;;;13.20;55.50;;;;;;5072444;28;20199;-38
2022/08/08 12:13:51;;;;;;;4.72;2.78;;;13.20;55.50;;;;;;5072692;28;20206;-37
2022/08/08 12:16:23;;;;;;;4.18;2.70;;;13.20;55.50;;;;;;5072700;28;20221;-37
2022/08/08 12:18:55;;;;;;;4.28;2.70;;;13.20;55.50;;;;;;5072624;28;20207;-43
2022/08/08 12:21:29;;;;;;;4.65;2.80;;;13.20;55.50;;;;;;5072243;28;20195;-43
2022/08/08 12:24:08;;;;;;;4.13;3.00;;;13.20;55.50;;;;;;5072168;28;20207;-38
2022/08/08 12:26:41;;;;;;;4.07;2.88;;;13.20;55.50;;;;;;5072219;28;20245;-38
2022/08/08 12:29:38;;;;;;;4.05;2.65;;;13.10;55.50;;;;;;5072242;28;20654;-37
2022/08/08 12:32:10;;;;;;;3.85;2.75;;;13.10;55.40;;;;;;5037604;28;20198;-37
2022/08/08 12:34:43;;;;;;;4.60;2.88;;;13.10;55.40;;;;;;5072322;28;20210;-38
2022/08/08 12:37:25;;;;;;;3.45;2.58;;;13.10;55.50;;;;;;5052156;28;20241;-46
2022/08/08 12:39:55;;;;;;;4.57;2.50;;;13.10;55.40;;;;;;5052154;28;20540;-37
2022/08/08 12:42:26;;;;;;;3.25;2.38;;;13.10;55.40;;;;;;5052652;28;20203;-48
2022/08/08 12:45:06;;;;;;;3.00;2.70;;;13.10;55.40;;;;;;5051841;28;20230;-40
2022/08/08 12:47:36;;;;;;;4.78;2.80;;;13.10;55.40;;;;;;5051838;28;20199;-37
2022/08/08 12:50:08;;;;;;;3.40;2.80;;;13.10;55.40;;;;;;5053572;28;20204;-38
2022/08/08 12:52:41;;;;;;;5.00;2.97;;;13.10;55.40;;;;;;5071469;28;20194;-37
2022/08/08 12:55:14;;;;;;;3.97;2.92;;;13.10;55.40;;;;;;5071543;28;20233;-37
2022/08/08 12:57:45;;;;;;;3.83;2.88;;;13.10;55.40;;;;;;5071605;28;20202;-38
2022/08/08 13:00:16;;;;;;;4.32;2.30;;;13.10;55.40;;;;;;5071628;28;20669;-37
2022/08/08 13:02:47;;;;;;;3.33;2.50;;;13.10;55.50;;;;;;5071605;28;20217;-38
2022/08/08 13:05:23;;;;;;;4.20;2.70;;;13.10;55.50;;;;;;5071165;28;20223;-38
2022/08/08 13:07:55;;;;;;;3.67;2.40;;;13.00;55.40;;;;;;5071465;28;20191;-37
2022/08/08 13:10:34;;;;;;;4.88;2.50;;;13.00;55.40;;;;;;5070377;28;20195;-48
2022/08/08 13:13:05;;;;;;;4.50;2.60;;;13.00;55.40;;;;;;5071666;28;20217;-42
2022/08/08 13:15:37;;;;;;;4.25;2.65;;;13.00;55.40;;;;;;5071703;28;20716;-38
2022/08/08 13:18:08;;;;;;;3.28;2.40;;;13.10;55.40;;;;;;5071655;28;20256;-38
2022/08/08 13:20:46;;;;;;;4.10;2.67;;;13.00;55.40;;;;;;5071319;28;20276;-38
2022/08/08 13:23:21;;;;;;;3.63;2.40;;;13.00;55.40;;;;;;5070988;28;20194;-38
2022/08/08 13:25:52;;;;;;;4.03;2.65;;;13.00;55.40;;;;;;5070993;28;20229;-37
2022/08/08 13:28:32;;;;;;;4.00;2.60;;;13.00;55.40;;;;;;5070978;28;20289;-37
2022/08/08 13:31:03;;;;;;;4.18;2.63;;;13.00;55.40;;;;;;5070707;28;20743;-37
2022/08/08 13:33:34;;;;;;;3.75;2.65;;;13.00;55.40;;;;;;5070748;28;20203;-37
2022/08/08 13:36:07;;;;;;;3.88;2.47;;;13.00;55.40;;;;;;5070441;28;20246;-38
2022/08/08 13:38:41;;;;;;;3.83;2.78;;;13.00;55.40;;;;;;5070764;28;20195;-37
2022/08/08 13:41:12;;;;;;;3.33;2.30;;;12.90;55.30;;;;;;5070879;28;20194;-35
2022/08/08 13:43:43;;;;;;;3.08;2.47;;;13.00;55.40;;;;;;5071272;28;20216;-49
2022/08/08 13:46:15;;;;;;;4.45;2.47;;;13.00;55.40;;;;;;5070393;28;20262;-35
2022/08/08 13:48:49;;;;;;;3.75;2.60;;;13.00;55.40;;;;;;5070602;28;20221;-40